Time;durP1;ratioP1;P1;durP2;ratioP2;P2;SDS_P1;SDS_P2;PMS_P1;PMS_P2;Temp;Humidity;BMP_temperature;BMP_pressure;BME280_temperature;BME280_humidity;BME280_pressure;Samples;Min_cycle;Max_cycle;Signal;HPM_P1;HPM_P2
2021/06/23 00:01:11;;;;;;;6.68;5.15;;;;;;;15.37;50.13;101435.03;3594309;39;20048;-74
2021/06/23 00:03:59;;;;;;;8.50;5.85;;;;;;;15.37;50.03;101442.44;3595466;39;20052;-74
2021/06/23 00:06:48;;;;;;;7.47;5.18;;;;;;;15.36;49.43;101443.44;3597395;39;20084;-74
2021/06/23 00:09:36;;;;;;;7.95;5.50;;;;;;;15.36;49.88;101443.44;3600635;39;20047;-74
2021/06/23 00:12:25;;;;;;;6.82;5.10;;;;;;;15.36;50.02;101448.97;3596343;40;20071;-74
2021/06/23 00:15:16;;;;;;;9.05;5.35;;;;;;;15.38;49.66;101457.94;3594359;40;20045;-74
2021/06/23 00:18:06;;;;;;;7.25;4.93;;;;;;;15.37;49.77;101461.72;3595365;40;20337;-74
2021/06/23 00:20:54;;;;;;;8.05;5.13;;;;;;;15.36;49.86;101463.59;3598245;40;20051;-74
2021/06/23 00:23:42;;;;;;;6.25;5.25;;;;;;;15.37;49.68;101467.25;3596816;39;20082;-74
2021/06/23 00:26:33;;;;;;;7.53;5.20;;;;;;;15.38;49.23;101466.22;3594427;40;20084;-74
2021/06/23 00:29:21;;;;;;;6.88;5.70;;;;;;;15.35;49.43;101470.13;3592533;39;20056;-74
2021/06/23 00:32:12;;;;;;;8.15;5.82;;;;;;;15.37;49.82;101475.50;3596202;39;20067;-74
2021/06/23 00:35:01;;;;;;;7.80;4.63;;;;;;;15.34;49.87;101479.41;3597717;40;20064;-74
2021/06/23 00:37:49;;;;;;;6.55;5.03;;;;;;;15.33;50.07;101477.69;3592602;40;20063;-74
2021/06/23 00:40:37;;;;;;;7.60;5.25;;;;;;;15.35;49.67;101481.16;3591623;40;20394;-74
2021/06/23 00:43:28;;;;;;;6.72;5.28;;;;;;;15.34;49.99;101473.03;3601192;39;20084;-74
2021/06/23 00:46:17;;;;;;;6.82;5.10;;;;;;;15.34;49.48;101481.31;3590610;40;20055;-75
2021/06/23 00:49:43;;;;;;;7.82;5.13;;;;;;;15.33;49.94;101485.94;3598502;39;20084;-75
2021/06/23 00:52:38;;;;;;;7.53;5.85;;;;;;;15.32;49.81;101486.97;3595668;39;20044;-74
2021/06/23 00:55:25;;;;;;;6.18;5.00;;;;;;;15.34;49.87;101484.06;3598537;39;20062;-75
2021/06/23 00:57:55;;;;;;;7.35;5.40;;;;;;;15.34;49.60;101478.56;3593919;40;20472;-74
2021/06/23 01:00:29;;;;;;;8.20;5.50;;;;;;;15.34;49.60;101479.41;3600195;39;20055;-74
2021/06/23 01:03:03;;;;;;;9.13;5.90;;;;;;;15.34;49.86;101478.56;3599151;39;20058;-74
2021/06/23 01:05:37;;;;;;;9.60;5.43;;;;;;;15.35;49.99;101472.91;3590660;40;20377;-74
2021/06/23 01:08:28;;;;;;;;;;;;;;;15.04;50.37;101486.00;3595571;39;20319;-74
2021/06/23 01:11:06;;;;;;;7.82;5.40;;;;;;;15.31;49.71;101478.88;3593300;40;19932;-74
2021/06/23 01:13:46;;;;;;;8.15;5.63;;;;;;;15.33;49.73;101472.16;3589227;39;20043;-74
2021/06/23 01:16:16;;;;;;;6.90;5.07;;;;;;;15.34;49.16;101470.28;3587791;40;20051;-74
2021/06/23 01:18:47;;;;;;;8.35;5.80;;;;;;;15.35;49.49;101472.03;3587062;39;20125;-74
2021/06/23 01:21:16;;;;;;;9.57;6.03;;;;;;;15.34;49.35;101471.16;3594714;39;20084;-73
2021/06/23 01:23:48;;;;;;;7.82;5.65;;;;;;;15.33;49.74;101474.91;3586314;40;20048;-73
2021/06/23 01:26:17;;;;;;;7.70;5.43;;;;;;;15.31;49.13;101468.69;3589010;40;20040;-74
2021/06/23 01:28:47;;;;;;;8.20;6.10;;;;;;;15.29;49.39;101462.47;3596712;40;20060;-74
2021/06/23 01:31:22;;;;;;;8.60;5.65;;;;;;;15.28;48.99;101466.25;3591449;39;20055;-74
2021/06/23 01:33:53;;;;;;;7.88;6.00;;;;;;;15.23;49.11;101465.78;3588880;40;20305;-74
2021/06/23 01:36:22;;;;;;;7.72;5.80;;;;;;;15.23;49.21;101474.06;3595314;39;20048;-74
2021/06/23 01:38:55;;;;;;;9.65;5.53;;;;;;;15.22;49.28;101466.84;3593066;40;20050;-74
2021/06/23 01:41:23;;;;;;;7.70;5.45;;;;;;;15.18;49.07;101473.66;3597454;39;20063;-74
2021/06/23 01:43:52;;;;;;;8.48;5.88;;;;;;;15.16;49.40;101481.19;3595593;39;20056;-73
2021/06/23 01:46:20;;;;;;;7.57;5.28;;;;;;;15.14;49.21;101486.00;3588223;40;20051;-74
2021/06/23 01:48:50;;;;;;;8.55;5.28;;;;;;;15.13;49.11;101486.16;3591111;40;20071;-74
2021/06/23 01:51:19;;;;;;;7.13;5.35;;;;;;;15.11;49.69;101479.91;3595903;40;20428;-74
2021/06/23 01:53:49;;;;;;;6.22;5.13;;;;;;;15.10;49.43;101486.44;3598609;40;20055;-75
2021/06/23 01:56:19;;;;;;;8.20;5.70;;;;;;;15.12;49.69;101489.91;3597632;40;20129;-76
2021/06/23 01:58:49;;;;;;;7.97;5.68;;;;;;;15.09;49.27;101491.06;3596369;39;20304;-74
2021/06/23 02:01:32;;;;;;;6.78;5.07;;;;;;;15.12;49.86;101484.41;3590036;40;20052;-74
2021/06/23 02:04:12;;;;;;;6.38;5.05;;;;;;;15.11;49.82;101489.03;3584872;40;20063;-74
2021/06/23 02:07:29;;;;;;;7.20;5.53;;;;;;;15.09;49.71;101481.94;3596975;39;20080;-74
2021/06/23 02:10:06;;;;;;;7.75;5.82;;;;;;;15.09;50.17;101490.19;3595174;40;20052;-74
2021/06/23 02:13:43;;;;;;;6.63;5.40;;;;;;;15.02;49.97;101489.91;3593659;40;20048;-74
2021/06/23 02:16:50;;;;;;;6.88;5.28;;;;;;;15.01;49.88;101486.28;3588762;40;20052;-74
2021/06/23 02:19:25;;;;;;;7.00;5.22;;;;;;;15.03;49.63;101491.66;3592763;40;20052;-79
2021/06/23 02:22:05;;;;;;;8.88;5.60;;;;;;;15.04;49.14;101494.28;3586915;40;20056;-74
2021/06/23 02:24:35;;;;;;;6.90;5.25;;;;;;;15.03;49.49;101488.91;3596824;39;20059;-74
2021/06/23 02:27:12;;;;;;;6.97;5.32;;;;;;;15.03;49.56;101499.94;3592000;40;20039;-75
2021/06/23 02:29:45;;;;;;;7.80;5.50;;;;;;;15.04;49.54;101501.66;3597910;39;20406;-74
2021/06/23 02:32:17;;;;;;;7.68;5.70;;;;;;;15.02;49.44;101499.06;3593488;40;20048;-74
2021/06/23 02:34:47;;;;;;;7.65;5.07;;;;;;;15.01;49.37;101497.31;3588545;40;20056;-74
2021/06/23 02:37:27;;;;;;;6.70;4.95;;;;;;;14.99;49.56;101501.22;3592676;40;20083;-74
2021/06/23 02:39:58;;;;;;;7.43;6.03;;;;;;;14.99;49.63;101502.09;3591431;40;20055;-74
2021/06/23 02:42:26;;;;;;;6.88;5.30;;;;;;;14.98;49.53;101500.34;3589217;40;20052;-74
2021/06/23 02:44:57;;;;;;;7.25;5.40;;;;;;;14.99;49.43;101503.97;3588197;40;20060;-74
2021/06/23 02:47:27;;;;;;;8.23;5.60;;;;;;;14.95;49.78;101500.66;3592317;40;20035;-74
2021/06/23 02:50:11;;;;;;;8.20;5.57;;;;;;;14.97;49.21;101509.66;3594994;40;20044;-74
2021/06/23 02:53:18;;;;;;;6.82;5.40;;;;;;;14.93;49.82;101505.44;3584873;39;20121;-75
2021/06/23 02:55:47;;;;;;;7.60;5.30;;;;;;;14.93;49.88;101501.81;3585068;40;20312;-74
2021/06/23 02:58:16;;;;;;;6.65;4.97;;;;;;;14.94;49.80;101500.78;3590496;40;20063;-74
2021/06/23 03:00:47;;;;;;;8.75;6.10;;;;;;;14.94;49.29;101500.78;3588384;40;20137;-74
2021/06/23 03:03:16;;;;;;;7.28;5.15;;;;;;;14.91;49.76;101498.31;3592042;40;20055;-74
2021/06/23 03:05:45;;;;;;;7.90;5.95;;;;;;;14.91;49.80;101506.59;3584168;40;20110;-74
2021/06/23 03:08:14;;;;;;;7.80;5.85;;;;;;;14.90;49.56;101508.47;3591814;40;20044;-74
2021/06/23 03:10:46;;;;;;;7.22;5.38;;;;;;;14.88;49.36;101512.41;3587459;40;20059;-74
2021/06/23 03:13:37;;;;;;;8.52;4.82;;;;;;;14.89;49.22;101515.03;3579489;40;20044;-74
2021/06/23 03:16:18;;;;;;;8.30;5.47;;;;;;;14.90;49.26;101515.88;3589509;40;20044;-74
2021/06/23 03:18:47;;;;;;;8.10;5.40;;;;;;;14.90;49.87;101518.66;3586337;40;20289;-74
2021/06/23 03:21:16;;;;;;;9.75;5.80;;;;;;;14.91;49.58;101517.59;3591183;40;20394;-74
2021/06/23 03:23:49;;;;;;;7.80;6.03;;;;;;;14.89;49.46;101517.78;3587310;40;20075;-74
2021/06/23 03:26:22;;;;;;;6.68;4.75;;;;;;;14.91;49.71;101515.72;3597398;40;20706;-75
2021/06/23 03:28:54;;;;;;;7.97;5.05;;;;;;;14.90;50.10;101524.16;3587481;40;20109;-74
2021/06/23 03:31:25;;;;;;;7.15;5.10;;;;;;;14.94;49.69;101520.94;3596888;40;20060;-74
2021/06/23 03:33:55;;;;;;;7.07;5.65;;;;;;;14.94;49.87;101511.81;3587656;40;20059;-74
2021/06/23 03:36:29;;;;;;;7.45;5.47;;;;;;;14.96;49.44;101515.31;3593263;40;20044;-74
2021/06/23 03:38:58;;;;;;;8.50;5.25;;;;;;;14.97;50.05;101517.03;3585222;40;20034;-74
2021/06/23 03:41:32;;;;;;;7.00;5.28;;;;;;;14.98;49.66;101516.03;3589221;40;20051;-74
2021/06/23 03:44:01;;;;;;;7.55;5.40;;;;;;;14.99;49.67;101524.13;3589424;40;20102;-74
2021/06/23 03:46:32;;;;;;;8.13;5.70;;;;;;;15.02;49.76;101529.38;3588839;39;20458;-74
2021/06/23 03:49:01;;;;;;;8.30;5.78;;;;;;;15.01;49.88;101524.88;3589716;40;20056;-74
2021/06/23 03:51:32;;;;;;;8.00;5.53;;;;;;;15.03;49.70;101527.47;3587305;40;20058;-74
2021/06/23 03:54:01;;;;;;;7.25;5.47;;;;;;;15.02;49.89;101521.09;3589358;40;20044;-74
2021/06/23 03:56:30;;;;;;;7.10;5.55;;;;;;;15.04;49.76;101524.59;3595812;40;20048;-74
2021/06/23 03:58:59;;;;;;;7.18;4.95;;;;;;;15.04;49.86;101532.84;3593794;40;20063;-74
2021/06/23 04:01:27;;;;;;;6.78;5.60;;;;;;;15.04;49.68;101531.97;3590792;40;20056;-74
2021/06/23 04:04:11;;;;;;;6.25;4.55;;;;;;;15.03;49.23;101530.22;3588238;40;20058;-74
2021/06/23 04:06:55;;;;;;;7.78;5.35;;;;;;;15.03;49.73;101530.22;3592701;40;20072;-74
2021/06/23 04:09:24;;;;;;;7.20;5.55;;;;;;;15.04;49.22;101538.38;3596140;40;20082;-74
2021/06/23 04:11:59;;;;;;;7.20;5.07;;;;;;;15.04;49.49;101535.59;3590784;40;20076;-75
2021/06/23 04:14:31;;;;;;;6.78;5.13;;;;;;;15.02;49.29;101537.63;3592774;40;20412;-74
2021/06/23 04:16:59;;;;;;;6.80;5.22;;;;;;;15.04;49.43;101529.22;3589522;40;20125;-74
2021/06/23 04:19:29;;;;;;;8.85;5.55;;;;;;;15.06;49.08;101544.56;3592411;40;20067;-74
2021/06/23 04:22:00;;;;;;;;;;;;;;;14.78;50.26;101539.94;3592986;40;20047;-75
2021/06/23 04:24:31;;;;;;;6.53;4.85;;;;;;;15.00;49.07;101541.53;3591270;39;19932;-75
2021/06/23 04:27:01;;;;;;;7.63;5.07;;;;;;;15.03;49.33;101538.50;3585857;40;20053;-76
2021/06/23 04:33:04;;;;;;;7.20;4.90;;;;;;;15.00;49.89;101538.78;3590492;40;20048;-75
2021/06/23 04:35:43;;;;;;;7.55;5.38;;;;;;;15.03;49.67;101542.13;3596846;40;20495;-75
2021/06/23 04:38:11;;;;;;;8.52;5.68;;;;;;;15.02;49.61;101539.50;3598732;39;20426;-76
2021/06/23 04:40:41;;;;;;;10.25;6.07;;;;;;;15.03;49.75;101535.75;3590603;40;20357;-75
2021/06/23 04:43:10;;;;;;;9.77;5.95;;;;;;;15.04;49.46;101530.09;3590684;40;20059;-76
2021/06/23 04:45:40;;;;;;;6.55;5.10;;;;;;;15.05;49.97;101528.22;3595980;39;20044;-76
2021/06/23 04:48:10;;;;;;;7.40;5.13;;;;;;;15.07;49.70;101517.88;3590680;40;20052;-76
2021/06/23 04:50:40;;;;;;;8.68;5.57;;;;;;;15.09;49.39;101528.78;3594102;39;20076;-75
2021/06/23 04:53:31;;;;;;;7.05;4.88;;;;;;;15.11;49.33;101532.25;3586500;39;20064;-75
2021/06/23 04:56:00;;;;;;;6.88;4.88;;;;;;;15.10;49.31;101536.03;3601179;39;20128;-75
2021/06/23 04:58:38;;;;;;;8.82;5.32;;;;;;;15.10;49.29;101536.91;3596028;40;20050;-75
2021/06/23 05:01:10;;;;;;;7.70;5.15;;;;;;;15.07;49.66;101539.94;3594811;40;20516;-75
2021/06/23 05:03:57;;;;;;;10.65;5.55;;;;;;;15.09;49.23;101539.78;3590048;40;20083;-75
2021/06/23 05:06:29;;;;;;;6.95;5.32;;;;;;;15.07;49.58;101539.94;3595721;40;20479;-75
2021/06/23 05:09:18;;;;;;;7.95;5.13;;;;;;;15.10;49.58;101536.91;3597382;40;20043;-75
2021/06/23 05:12:08;;;;;;;8.88;5.28;;;;;;;15.11;49.45;101543.28;3598651;40;20044;-74
2021/06/23 05:14:56;;;;;;;6.13;3.85;;;;;;;15.12;50.06;101539.50;3596580;39;20044;-70
2021/06/23 05:17:44;;;;;;;6.32;4.40;;;;;;;15.16;50.58;101538.19;3597630;40;20092;-69
2021/06/23 05:20:33;;;;;;;5.97;4.25;;;;;;;15.24;51.12;101539.19;3593019;40;20058;-69
2021/06/23 05:23:22;;;;;;;9.18;5.30;;;;;;;15.34;50.78;101545.59;3598056;39;20347;-70
2021/06/23 05:26:12;;;;;;;7.53;5.10;;;;;;;15.50;50.78;101544.97;3597258;39;20027;-69
2021/06/23 05:29:02;;;;;;;7.05;4.68;;;;;;;15.64;50.75;101538.19;3594954;39;20066;-69
2021/06/23 05:31:51;;;;;;;6.13;4.53;;;;;;;15.78;50.85;101537.69;3593671;40;20059;-70
2021/06/23 05:34:39;;;;;;;6.95;4.72;;;;;;;15.93;50.16;101538.06;3597889;40;20056;-69
2021/06/23 05:37:27;;;;;;;7.68;5.22;;;;;;;16.08;50.02;101540.19;3598317;40;20347;-69
2021/06/23 05:40:16;;;;;;;6.15;4.45;;;;;;;16.21;49.87;101544.50;3596284;40;20337;-70
2021/06/23 05:43:05;;;;;;;7.10;4.53;;;;;;;16.34;49.61;101533.97;3598730;40;20589;-69
2021/06/23 05:45:54;;;;;;;8.15;5.53;;;;;;;16.43;48.99;101542.19;3596454;39;20057;-70
2021/06/23 05:48:42;;;;;;;6.03;4.70;;;;;;;16.50;49.18;101542.47;3595332;39;20039;-75
2021/06/23 05:51:30;;;;;;;8.40;4.95;;;;;;;16.55;48.26;101545.63;3593941;40;20603;-76
2021/06/23 05:54:18;;;;;;;7.65;4.93;;;;;;;16.58;48.07;101548.09;3596918;40;20308;-76
2021/06/23 05:56:55;;;;;;;6.88;5.05;;;;;;;16.57;47.91;101546.34;3593868;39;20065;-75
2021/06/23 05:59:25;;;;;;;9.75;4.93;;;;;;;16.56;47.26;101555.66;3590452;40;20060;-76
2021/06/23 06:01:53;;;;;;;9.43;5.05;;;;;;;16.49;46.90;101557.28;3590644;40;20059;-75
2021/06/23 06:04:21;;;;;;;8.50;5.68;;;;;;;16.44;47.14;101556.88;3597937;40;20051;-75
2021/06/23 06:06:53;;;;;;;9.75;4.97;;;;;;;16.35;47.19;101566.94;3600467;39;20055;-76
2021/06/23 06:09:22;;;;;;;9.00;5.57;;;;;;;16.29;47.10;101563.94;3592245;40;20048;-76
2021/06/23 06:11:57;;;;;;;6.90;4.90;;;;;;;16.21;47.04;101566.59;3585293;40;20044;-76
2021/06/23 06:14:26;;;;;;;10.05;5.13;;;;;;;16.16;46.85;101578.06;3597457;39;20048;-76
2021/06/23 06:17:03;;;;;;;8.48;5.55;;;;;;;16.06;47.46;101571.69;3598347;39;20114;-77
2021/06/23 06:19:32;;;;;;;7.72;5.22;;;;;;;15.99;46.94;101567.81;3595404;39;20048;-75
2021/06/23 06:22:08;;;;;;;8.05;5.32;;;;;;;15.91;46.83;101565.81;3598231;40;20028;-76
2021/06/23 06:24:57;;;;;;;9.02;5.30;;;;;;;15.85;47.42;101585.72;3591825;40;20067;-75
2021/06/23 06:27:45;;;;;;;8.32;5.20;;;;;;;15.75;47.12;101571.09;3597220;40;20048;-75
2021/06/23 06:30:34;;;;;;;8.15;5.82;;;;;;;15.69;47.47;101585.47;3590204;39;20040;-74
2021/06/23 06:33:11;;;;;;;8.98;5.70;;;;;;;15.60;47.29;101595.47;3589211;40;20095;-75
2021/06/23 06:35:59;;;;;;;7.53;5.15;;;;;;;15.54;47.47;101595.19;3602687;39;20440;-75
2021/06/23 06:38:40;;;;;;;8.13;5.38;;;;;;;15.47;47.47;101599.56;3588587;40;21399;-75
2021/06/23 06:41:29;;;;;;;8.68;5.75;;;;;;;15.39;47.39;101608.56;3595646;39;20044;-75
2021/06/23 06:44:17;;;;;;;8.98;5.80;;;;;;;15.33;47.69;101606.38;3597175;40;20052;-75
2021/06/23 06:47:07;;;;;;;9.52;5.68;;;;;;;15.30;47.19;101598.41;3590829;39;20263;-75
2021/06/23 06:49:55;;;;;;;8.38;5.60;;;;;;;15.22;47.62;101614.81;3595873;40;20048;-75
2021/06/23 06:52:31;;;;;;;10.88;5.78;;;;;;;15.19;47.82;101613.19;3574852;40;20048;-74
2021/06/23 06:55:00;;;;;;;7.55;5.20;;;;;;;15.18;48.10;101613.34;3590069;40;20389;-76
2021/06/23 06:57:29;;;;;;;8.18;4.32;;;;;;;15.14;47.95;101612.78;3597091;40;20055;-74
2021/06/23 06:59:59;;;;;;;9.68;5.88;;;;;;;15.12;47.90;101608.41;3586547;40;20297;-74
2021/06/23 07:02:56;;;;;;;7.28;5.25;;;;;;;15.13;47.90;101612.91;3595001;39;20066;-76
2021/06/23 07:05:44;;;;;;;10.32;6.38;;;;;;;15.05;47.84;101619.13;3597795;39;20031;-74
2021/06/23 07:08:34;;;;;;;9.18;5.78;;;;;;;15.05;47.86;101621.91;3594731;40;20055;-75
2021/06/23 07:11:25;;;;;;;8.63;5.40;;;;;;;14.99;48.09;101623.31;3596185;40;20433;-75
2021/06/23 07:14:14;;;;;;;9.52;5.45;;;;;;;14.98;48.23;101624.31;3595213;40;20125;-75
2021/06/23 07:17:02;;;;;;;7.75;5.00;;;;;;;14.97;48.53;101622.63;3594569;40;20064;-74
2021/06/23 07:19:51;;;;;;;9.40;5.72;;;;;;;14.98;48.58;101621.56;3595522;40;20048;-72
2021/06/23 07:22:40;;;;;;;10.02;5.28;;;;;;;14.97;48.42;101624.50;3592148;40;20033;-74
2021/06/23 07:25:29;;;;;;;10.45;5.82;;;;;;;14.98;48.16;101631.75;3595393;39;20056;-73
2021/06/23 07:28:31;;;;;;;8.63;5.65;;;;;;;14.95;48.24;101623.75;3595601;40;20066;-73
2021/06/23 07:31:24;;;;;;;9.15;5.25;;;;;;;14.99;48.52;101627.94;3588016;40;20425;-75
2021/06/23 07:37:19;;;;;;;6.80;4.38;;;;;;;15.01;48.92;101625.94;3586182;39;20090;-74
2021/06/23 07:39:48;;;;;;;8.32;5.32;;;;;;;15.04;48.43;101622.91;3598084;39;20080;-74
2021/06/23 07:42:16;;;;;;;9.25;6.03;;;;;;;15.06;48.50;101626.41;3598906;39;20060;-75
2021/06/23 07:44:48;;;;;;;9.90;6.80;;;;;;;15.11;48.72;101628.72;3594634;40;20060;-75
2021/06/23 07:47:20;;;;;;;8.70;5.63;;;;;;;15.10;48.60;101629.72;3597057;39;20080;-74
2021/06/23 07:49:49;;;;;;;9.93;5.65;;;;;;;15.10;48.60;101627.84;3598567;40;20060;-74
2021/06/23 07:52:28;;;;;;;10.68;6.28;;;;;;;15.15;48.94;101628.25;3596555;40;20052;-74
2021/06/23 08:09:02;;;;;;;8.52;5.28;;;;;;;15.20;48.71;101633.38;3595946;39;20485;-73
2021/06/23 08:11:35;;;;;;;8.52;5.75;;;;;;;15.20;48.50;101634.22;3597864;39;20075;-75
2021/06/23 08:14:04;;;;;;;7.70;5.47;;;;;;;15.21;48.29;101632.34;3596158;39;20048;-74
2021/06/23 08:16:33;;;;;;;8.77;5.43;;;;;;;15.23;48.66;101638.59;3597737;39;20104;-73
2021/06/23 08:19:02;;;;;;;10.32;6.35;;;;;;;15.23;48.46;101642.19;3583701;40;20068;-72
2021/06/23 08:21:32;;;;;;;10.25;6.55;;;;;;;15.24;48.40;101641.19;3580632;40;20076;-72
2021/06/23 08:24:01;;;;;;;8.43;6.18;;;;;;;15.26;48.51;101638.28;3598917;40;20047;-74
2021/06/23 08:26:29;;;;;;;9.73;5.75;;;;;;;15.26;48.32;101641.91;3596226;40;20467;-73
2021/06/23 08:28:58;;;;;;;9.73;6.00;;;;;;;15.28;48.53;101639.91;3595372;40;20335;-73
2021/06/23 08:31:26;;;;;;;10.32;6.45;;;;;;;15.27;48.50;101638.16;3601960;39;20051;-74
2021/06/23 08:33:58;;;;;;;;;;;;;;;15.03;49.34;101645.97;3599591;39;20048;-74
2021/06/23 08:36:27;;;;;;;9.77;6.32;;;;;;;15.26;48.57;101641.03;3599261;39;20268;-74
2021/06/23 08:38:55;;;;;;;9.75;6.32;;;;;;;15.31;48.85;101636.84;3598384;39;20048;-74
2021/06/23 08:41:26;;;;;;;9.38;6.53;;;;;;;15.33;48.32;101642.22;3599547;39;20055;-73
2021/06/23 08:43:57;;;;;;;9.30;5.78;;;;;;;15.34;48.54;101641.19;3598116;39;20062;-74
2021/06/23 08:46:25;;;;;;;9.52;6.25;;;;;;;15.33;48.45;101642.22;3598063;40;20047;-73
2021/06/23 08:48:56;;;;;;;9.02;6.03;;;;;;;15.35;48.36;101646.56;3597916;39;20055;-74
2021/06/23 08:51:26;;;;;;;8.23;5.88;;;;;;;15.36;48.49;101651.06;3596648;40;20088;-74
2021/06/23 08:53:54;;;;;;;11.25;6.78;;;;;;;15.37;48.51;101643.69;3597131;39;20048;-73
2021/06/23 08:56:22;;;;;;;7.95;5.95;;;;;;;15.39;48.70;101649.94;3597831;39;20099;-73
2021/06/23 08:58:53;;;;;;;8.85;5.85;;;;;;;15.43;48.93;101649.47;3590377;39;20051;-74
2021/06/23 09:01:21;;;;;;;9.73;5.68;;;;;;;15.45;48.44;101652.09;3596585;39;20051;-74
2021/06/23 09:04:05;;;;;;;8.82;5.90;;;;;;;15.50;48.32;101655.28;3584171;40;20412;-74
2021/06/23 09:06:44;;;;;;;8.30;5.32;;;;;;;15.53;48.60;101654.13;3595052;39;20125;-74
2021/06/23 09:09:23;;;;;;;8.25;6.03;;;;;;;15.55;48.77;101655.72;3600631;39;20063;-75
2021/06/23 09:11:54;;;;;;;9.65;6.30;;;;;;;15.55;48.28;101646.59;3596880;39;20104;-74
2021/06/23 09:14:25;;;;;;;8.43;6.10;;;;;;;15.58;48.69;101649.03;3597388;40;20056;-73
2021/06/23 09:17:04;;;;;;;;;;;;;;;15.30;48.92;101653.53;3594197;39;20044;-73
2021/06/23 09:19:51;;;;;;;8.35;5.00;;;;;;;15.56;48.27;101651.09;3596852;39;20266;-74
2021/06/23 09:22:40;;;;;;;8.15;5.43;;;;;;;15.61;48.56;101654.25;3598052;39;20122;-73
2021/06/23 09:25:25;;;;;;;8.05;6.20;;;;;;;15.64;48.34;101651.25;3590402;40;20048;-73
2021/06/23 09:27:56;;;;;;;7.05;5.40;;;;;;;15.65;48.65;101650.22;3589426;40;20404;-73
2021/06/23 09:30:34;;;;;;;8.07;5.85;;;;;;;15.71;48.77;101645.00;3597775;40;20055;-74
2021/06/23 09:33:11;;;;;;;9.93;5.68;;;;;;;15.76;48.64;101652.81;3597036;39;20088;-75
2021/06/23 09:35:42;;;;;;;8.70;5.45;;;;;;;15.78;48.73;101642.53;3598985;39;20056;-74
2021/06/23 09:38:43;;;;;;;8.63;5.90;;;;;;;15.84;48.55;101652.97;3587501;40;20051;-74
2021/06/23 09:41:25;;;;;;;7.25;5.32;;;;;;;15.90;48.99;101657.00;3596515;40;20312;-73
2021/06/23 09:44:04;;;;;;;7.07;5.03;;;;;;;15.94;48.85;101656.56;3597926;39;20058;-74
2021/06/23 09:46:35;;;;;;;6.75;5.13;;;;;;;16.00;48.50;101655.97;3596350;40;20048;-75
2021/06/23 09:49:15;;;;;;;7.57;5.00;;;;;;;16.08;48.26;101661.63;3597322;39;20048;-75
2021/06/23 09:51:51;;;;;;;7.28;5.43;;;;;;;16.14;48.12;101658.25;3597228;40;20063;-74
2021/06/23 09:54:22;;;;;;;7.25;4.97;;;;;;;16.18;48.71;101658.84;3594073;40;20037;-75
2021/06/23 09:57:17;;;;;;;6.82;4.63;;;;;;;16.24;48.49;101666.50;3589215;40;20044;-75
2021/06/23 09:59:47;;;;;;;7.15;5.00;;;;;;;16.28;48.61;101667.97;3584696;40;20204;-76
2021/06/23 10:02:25;;;;;;;7.53;5.20;;;;;;;16.36;48.13;101650.66;3599145;39;20090;-76
2021/06/23 10:04:54;;;;;;;7.43;4.85;;;;;;;16.36;48.41;101650.66;3596255;39;20051;-75
2021/06/23 10:07:40;;;;;;;9.00;5.60;;;;;;;16.41;47.54;101651.06;3597448;39;20048;-79
2021/06/23 10:10:10;;;;;;;10.00;6.47;;;;;;;16.42;47.46;101655.56;3595046;39;20047;-76
2021/06/23 10:12:38;;;;;;;8.52;5.70;;;;;;;16.43;47.67;101652.66;3592885;39;20080;-75
2021/06/23 10:15:08;;;;;;;7.65;5.60;;;;;;;16.45;47.93;101647.84;3594459;39;20059;-74
2021/06/23 10:17:39;;;;;;;9.77;5.78;;;;;;;16.48;47.29;101658.63;3587210;39;20060;-75
2021/06/23 10:20:09;;;;;;;9.80;6.40;;;;;;;16.49;47.41;101656.72;3596826;39;20047;-75
2021/06/23 10:22:39;;;;;;;9.20;6.07;;;;;;;16.50;47.41;101652.94;3580385;40;20048;-76
2021/06/23 10:25:10;;;;;;;8.07;5.70;;;;;;;16.53;47.77;101644.38;3583169;40;20149;-75
2021/06/23 10:27:42;;;;;;;7.22;5.40;;;;;;;16.56;47.35;101649.56;3597661;39;20469;-76
2021/06/23 10:30:13;;;;;;;10.07;6.93;;;;;;;16.57;47.75;101645.78;3597898;39;20263;-75
2021/06/23 10:32:44;;;;;;;10.63;6.50;;;;;;;16.62;47.58;101646.22;3599333;39;20048;-75
2021/06/23 10:35:14;;;;;;;6.57;5.18;;;;;;;16.62;47.52;101646.22;3599792;39;20055;-74
2021/06/23 10:37:45;;;;;;;8.93;5.65;;;;;;;16.66;47.72;101644.00;3607560;39;20058;-74
2021/06/23 10:40:16;;;;;;;8.93;5.90;;;;;;;16.66;47.18;101650.41;3588241;40;20084;-74
2021/06/23 10:42:45;;;;;;;9.75;6.68;;;;;;;16.70;47.42;101649.09;3588486;40;20078;-74
2021/06/23 10:45:15;;;;;;;9.30;5.65;;;;;;;16.74;47.39;101646.88;3579145;40;20052;-74
2021/06/23 10:47:46;;;;;;;8.27;6.18;;;;;;;16.78;47.20;101651.06;3588083;40;20064;-74
2021/06/23 10:50:31;;;;;;;8.20;6.00;;;;;;;16.80;47.00;101643.47;3588381;40;20059;-74
2021/06/23 10:53:00;;;;;;;8.20;6.07;;;;;;;16.81;46.97;101646.09;3578112;40;20045;-74
2021/06/23 10:55:38;;;;;;;7.45;5.20;;;;;;;16.87;46.64;101648.25;3586091;40;20055;-75
2021/06/23 10:58:09;;;;;;;8.25;6.45;;;;;;;16.87;47.07;101655.69;3588476;40;20044;-74
2021/06/23 11:00:40;;;;;;;9.82;6.97;;;;;;;16.89;46.39;101659.13;3588830;40;20063;-74
2021/06/23 11:03:13;;;;;;;8.50;6.25;;;;;;;16.91;46.58;101652.44;3598127;40;20083;-74
2021/06/23 11:05:44;;;;;;;10.43;6.47;;;;;;;16.93;47.02;101655.94;3582902;40;20078;-74
2021/06/23 11:08:28;;;;;;;7.25;6.07;;;;;;;16.97;46.45;101653.69;3581792;40;20056;-74
2021/06/23 11:10:58;;;;;;;8.05;6.15;;;;;;;16.97;46.51;101655.59;3587648;40;20052;-74
2021/06/23 11:13:28;;;;;;;7.72;5.78;;;;;;;17.01;47.03;101659.81;3587535;40;20084;-74
2021/06/23 11:16:01;;;;;;;9.63;7.07;;;;;;;17.02;46.56;101651.38;3588049;40;20324;-74
2021/06/23 11:18:37;;;;;;;9.65;6.68;;;;;;;17.06;46.32;101657.44;3588353;40;20079;-74
2021/06/23 11:21:18;;;;;;;10.18;7.50;;;;;;;17.06;46.09;101650.00;3588246;40;20055;-75
2021/06/23 11:23:56;;;;;;;8.35;6.65;;;;;;;17.08;46.69;101647.97;3589580;40;20146;-74
2021/06/23 11:26:50;;;;;;;9.25;6.97;;;;;;;17.09;46.33;101654.38;3590115;40;20050;-74
2021/06/23 11:29:30;;;;;;;11.00;7.72;;;;;;;17.13;46.29;101644.72;3587239;40;20129;-74
2021/06/23 11:32:05;;;;;;;9.25;7.18;;;;;;;17.17;46.83;101651.69;3588257;40;20142;-74
2021/06/23 11:35:01;;;;;;;10.38;7.97;;;;;;;17.20;45.86;101654.16;3592513;40;20080;-74
2021/06/23 11:37:33;;;;;;;8.18;6.53;;;;;;;17.24;46.78;101645.38;3597827;40;20052;-74
2021/06/23 11:40:16;;;;;;;7.72;6.30;;;;;;;17.33;46.30;101651.03;3584748;40;20063;-73
2021/06/23 11:42:45;;;;;;;8.35;5.88;;;;;;;17.36;46.94;101648.81;3587988;40;20056;-74
2021/06/23 11:45:15;;;;;;;8.23;6.35;;;;;;;17.44;47.00;101648.91;3578827;40;20298;-74
2021/06/23 11:47:44;;;;;;;9.20;6.60;;;;;;;17.50;46.23;101653.78;3587626;40;20052;-74
2021/06/23 11:50:14;;;;;;;9.05;6.05;;;;;;;17.57;46.12;101649.38;3587839;40;20060;-74
2021/06/23 11:52:43;;;;;;;7.22;6.05;;;;;;;17.61;46.61;101644.38;3587911;40;20405;-75
2021/06/23 11:55:23;;;;;;;8.30;6.38;;;;;;;17.68;46.25;101648.25;3588481;40;20082;-75
2021/06/23 11:57:57;;;;;;;8.20;6.65;;;;;;;17.76;46.28;101640.03;3586687;40;20044;-74
2021/06/23 12:00:26;;;;;;;8.25;6.40;;;;;;;17.79;45.87;101645.22;3593802;40;20418;-74
2021/06/23 12:02:55;;;;;;;6.70;6.00;;;;;;;17.84;46.05;101642.84;3580484;40;20059;-75
2021/06/23 12:05:25;;;;;;;9.18;6.28;;;;;;;17.90;45.75;101635.78;3569677;40;20059;-75
2021/06/23 12:07:55;;;;;;;7.60;6.63;;;;;;;17.94;45.83;101643.63;3580749;40;20045;-75
2021/06/23 12:10:25;;;;;;;9.32;6.70;;;;;;;18.00;45.74;101642.09;3582538;40;20048;-75
2021/06/23 12:12:55;;;;;;;9.43;7.13;;;;;;;18.03;46.05;101655.63;3570470;40;20360;-75
2021/06/23 12:15:24;;;;;;;9.27;6.70;;;;;;;18.05;46.00;101643.38;3572374;40;20060;-74
2021/06/23 12:17:58;;;;;;;11.20;7.90;;;;;;;18.10;45.73;101640.13;3573258;40;20056;-74
2021/06/23 12:20:31;;;;;;;9.68;7.00;;;;;;;18.15;45.70;101648.81;3592393;40;20074;-74
2021/06/23 12:23:00;;;;;;;10.65;7.50;;;;;;;18.16;45.36;101642.25;3597799;40;20133;-74
2021/06/23 12:25:31;;;;;;;9.27;6.93;;;;;;;18.23;45.62;101646.09;3589559;40;20098;-75
2021/06/23 12:28:00;;;;;;;8.25;6.28;;;;;;;18.26;45.44;101640.25;3599037;40;20052;-74
2021/06/23 12:30:28;;;;;;;10.75;7.10;;;;;;;18.32;45.61;101635.94;3595205;40;20045;-74
2021/06/23 12:32:59;;;;;;;8.23;6.35;;;;;;;18.41;45.29;101641.34;3589717;40;20133;-74